Catàleg de serveis del Meteocat
Campanya meteocatpedra

Dades de l'estació automàtica la Granadella

?
?
Resum diari 22:00 TU
Dades diàries de l'estació meteorològica
Temperatura mitjana 12.9 °C
Temperatura màxima 17.7 °C 13:46 TU
Temperatura mínima 6.6 °C 5:48 TU
Humitat relativa mitjana 61%
Precipitació acumulada 0.0 mm
Ratxa màxima del vent (2 m) 67.7 km/h - 133º 19:52 TU
Irradiació solar global 9.4 MJ/m2

El tram horari està expressat en Temps Universal (TU). Cal sumar una hora en horari d'hivern i dues en horari d'estiu per passar a l'hora oficial.

la Granadella

Metadades estació meteorol´gica
Municipi La Granadella
Comarca Garrigues
Altitud 505 m
Data alta 30.01.1992
Estat actual Operativa
Dades de període
Període
TU
TM
°C
TX
°C
TN
°C
HRM
%
PPT
mm
VVM (2 m)
km/h
DVM (2 m)
graus
VVX (2 m)
km/h
RS
W/m2
00:00 - 00:30 10.0 10.7 9.0 83 0.0 3.2 29 6.8 0
00:30 - 01:00 8.7 9.0 8.1 86 0.0 2.9 129 5.8 0
01:00 - 01:30 7.8 8.3 7.4 88 0.0 4.0 123 8.6 0
01:30 - 02:00 7.4 8.1 7.2 88 0.0 4.7 128 9.7 0
02:00 - 02:30 6.9 7.3 6.6 90 0.0 3.6 114 6.8 0
02:30 - 03:00 8.5 9.5 7.2 86 0.0 5.0 76 12.6 0
03:00 - 03:30 9.7 10.0 9.4 77 0.0 6.1 72 10.8 0
03:30 - 04:00 10.1 10.3 9.9 74 0.0 6.8 61 15.8 0
04:00 - 04:30 9.6 9.9 9.3 79 0.0 5.0 83 9.0 0
04:30 - 05:00 8.4 9.2 8.0 84 0.0 3.2 136 6.5 0
05:00 - 05:30 7.8 8.4 7.2 86 0.0 2.2 75 5.4 3
05:30 - 06:00 6.9 7.3 6.6 90 0.0 1.8 109 5.0 27
06:00 - 06:30 7.2 7.9 6.7 90 0.0 2.2 123 5.0 57
06:30 - 07:00 8.6 9.8 7.5 87 0.0 2.2 130 5.0 132
07:00 - 07:30 10.6 10.9 9.8 79 0.0 3.2 14 11.5 117
07:30 - 08:00 11.2 11.7 10.8 73 0.0 3.2 313 8.6 95
08:00 - 08:30 11.1 11.7 10.8 74 0.0 7.9 14 14.8 78
08:30 - 09:00 11.8 12.5 11.0 68 0.0 7.9 27 18.4 210
09:00 - 09:30 12.5 12.6 12.3 57 0.0 12.6 61 28.1 185
09:30 - 10:00 13.4 14.2 12.6 50 0.0 10.4 61 24.5 293
10:00 - 10:30 14.7 15.1 14.2 43 0.0 11.2 97 23.0 349
10:30 - 11:00 15.6 15.7 15.2 41 0.0 10.8 89 27.4 343
11:00 - 11:30 16.0 16.3 15.6 41 0.0 11.2 93 24.1 299
11:30 - 12:00 16.3 16.5 16.3 40 0.0 13.3 85 27.4 254
12:00 - 12:30 16.6 16.7 16.5 39 0.0 15.8 102 31.0 310
12:30 - 13:00 16.8 16.9 16.6 38 0.0 16.2 99 34.6 313
13:00 - 13:30 17.1 17.4 16.8 40 0.0 12.2 84 32.4 392
13:30 - 14:00 17.3 17.7 17.0 40 0.0 8.6 90 26.3 349
14:00 - 14:30 17.4 17.6 17.1 42 0.0 6.1 54 16.6 274
14:30 - 15:00 17.5 17.7 17.0 43 0.0 10.8 85 33.1 266
15:00 - 15:30 17.0 17.2 16.9 44 0.0 11.2 65 25.2 233
15:30 - 16:00 16.7 17.1 16.5 44 0.0 14.0 52 34.2 226
16:00 - 16:30 16.6 16.7 16.5 45 0.0 10.4 48 23.8 181
16:30 - 17:00 16.5 16.9 15.9 46 0.0 10.8 70 29.5 110
17:00 - 17:30 15.6 15.9 15.5 51 0.0 12.2 63 27.7 76
17:30 - 18:00 15.5 15.6 15.4 50 0.0 6.1 83 27.7 38
18:00 - 18:30 15.1 15.5 14.6 51 0.0 7.9 255 18.7 20
18:30 - 19:00 14.5 14.7 14.2 56 0.0 4.7 258 18.7 1
19:00 - 19:30 14.9 15.1 14.5 50 0.0 13.7 101 37.1 0
19:30 - 20:00 14.5 14.9 14.4 53 0.0 27.0 110 67.7 0
20:00 - 20:30 14.3 14.4 14.1 55 0.0 30.6 114 59.4 0
20:30 - 21:00 14.1 14.1 13.9 54 0.0 22.3 115 43.2 0
21:00 - 21:30 13.8 13.9 13.6 55 0.0 21.2 113 42.8 0
21:30 - 22:00 13.6 13.7 13.6 57 0.0 23.0 112 42.5 0
22:00 - 22:30 13.7 13.8 13.6 54 0.0 19.4 111 35.3 0

Les dades en taronja només han passat un control de qualitat automàtic. Resta pendent la seva validació definitiva.